Time;durP1;ratioP1;P1;durP2;ratioP2;P2;SDS_P1;SDS_P2;PMS_P1;PMS_P2;Temp;Humidity;BMP_temperature;BMP_pressure;BME280_temperature;BME280_humidity;BME280_pressure;Samples;Min_cycle;Max_cycle;Signal;HPM_P1;HPM_P2
2021/06/02 00:01:36;;;;;;;11.15;4.72;;;19.10;50.30;;;;;;6190220;23;20593;-82
2021/06/02 00:04:02;;;;;;;8.93;4.50;;;19.20;50.30;;;;;;6189332;23;20134;-82
2021/06/02 00:06:29;;;;;;;8.75;5.10;;;19.10;50.30;;;;;;6164754;23;20141;-82
2021/06/02 00:08:55;;;;;;;6.57;3.95;;;19.00;50.20;;;;;;6164886;23;20138;-82
2021/06/02 00:11:20;;;;;;;8.82;4.68;;;19.10;50.30;;;;;;6189021;23;20158;-83
2021/06/02 00:13:47;;;;;;;7.82;4.30;;;19.10;50.30;;;;;;6189983;23;20146;-82
2021/06/02 00:16:12;;;;;;;6.78;4.10;;;19.10;50.30;;;;;;6215716;23;20135;-83
2021/06/02 00:18:38;;;;;;;7.90;4.35;;;19.10;50.40;;;;;;6164671;23;20227;-83
2021/06/02 00:21:06;;;;;;;8.82;4.50;;;19.10;50.30;;;;;;6215946;23;20277;-82
2021/06/02 00:23:32;;;;;;;7.90;4.30;;;19.10;50.30;;;;;;6189175;23;20189;-82
2021/06/02 00:25:58;;;;;;;7.88;4.63;;;19.10;50.30;;;;;;6164511;23;20138;-81
2021/06/02 00:28:24;;;;;;;8.35;4.90;;;19.10;50.40;;;;;;6189448;23;20189;-82
2021/06/02 00:30:50;;;;;;;8.27;4.40;;;19.10;50.40;;;;;;6215731;23;20451;-82
2021/06/02 00:33:15;;;;;;;10.43;4.40;;;19.10;50.40;;;;;;6164723;23;20215;-82
2021/06/02 00:35:42;;;;;;;7.30;4.47;;;19.00;50.40;;;;;;6215720;23;20548;-82
2021/06/02 00:38:08;;;;;;;9.98;4.53;;;19.00;50.30;;;;;;6189400;23;20141;-82
2021/06/02 00:40:41;;;;;;;9.32;4.50;;;19.00;50.40;;;;;;6165004;23;20205;-83
2021/06/02 00:43:07;;;;;;;7.05;4.28;;;19.10;50.40;;;;;;6140309;23;20527;-82
2021/06/02 00:45:34;;;;;;;10.15;4.40;;;19.00;50.40;;;;;;6189195;23;20150;-82
2021/06/02 00:48:01;;;;;;;8.82;4.68;;;19.00;50.30;;;;;;6164283;23;20205;-82
2021/06/02 00:50:27;;;;;;;10.00;4.70;;;19.00;50.40;;;;;;6189151;23;20138;-82
2021/06/02 00:52:54;;;;;;;7.07;4.78;;;19.00;50.40;;;;;;6188997;23;20589;-82
2021/06/02 00:55:21;;;;;;;7.82;4.50;;;19.00;50.40;;;;;;6164244;23;20146;-83
2021/06/02 00:57:48;;;;;;;7.13;4.55;;;19.00;50.40;;;;;;6164490;23;20214;-83
2021/06/02 01:00:15;;;;;;;7.13;4.10;;;19.00;50.40;;;;;;6164760;23;20182;-82
2021/06/02 01:02:45;;;;;;;6.65;4.40;;;19.00;50.50;;;;;;6139905;23;20142;-83
2021/06/02 01:05:11;;;;;;;7.88;4.78;;;19.00;50.40;;;;;;6165897;23;20617;-82
2021/06/02 01:07:36;;;;;;;7.32;4.70;;;19.00;50.40;;;;;;6166356;23;20165;-82
2021/06/02 01:10:02;;;;;;;7.75;4.50;;;19.00;50.50;;;;;;6190938;23;20486;-82
2021/06/02 01:12:29;;;;;;;9.25;4.57;;;19.00;50.50;;;;;;6191296;23;20212;-82
2021/06/02 01:14:55;;;;;;;8.52;4.40;;;19.00;50.50;;;;;;6166107;23;20149;-82
2021/06/02 01:17:23;;;;;;;7.80;4.88;;;19.00;50.50;;;;;;6166371;23;20126;-82
2021/06/02 01:19:48;;;;;;;9.13;4.35;;;19.00;50.50;;;;;;6217424;23;20170;-83
2021/06/02 01:22:14;;;;;;;10.02;4.72;;;19.00;50.50;;;;;;6190904;23;20145;-83
2021/06/02 01:24:40;;;;;;;8.25;4.57;;;18.90;50.50;;;;;;6190778;23;20133;-82
2021/06/02 01:27:08;;;;;;;5.40;4.20;;;19.00;50.50;;;;;;6190926;23;20157;-82
2021/06/02 01:29:35;;;;;;;9.07;4.57;;;19.00;50.60;;;;;;6190888;23;20201;-82
2021/06/02 01:32:30;;;;;;;11.32;4.60;;;19.00;50.60;;;;;;6191661;23;20160;-82
2021/06/02 01:35:29;;;;;;;9.73;4.82;;;19.00;50.60;;;;;;6169989;23;20184;-82
2021/06/02 01:38:29;;;;;;;5.95;4.30;;;19.00;50.60;;;;;;6172626;23;20485;-83
2021/06/02 01:41:09;;;;;;;7.90;4.30;;;19.00;50.60;;;;;;6190919;23;20212;-82
2021/06/02 01:44:00;;;;;;;7.80;4.53;;;19.00;50.50;;;;;;6217519;23;20184;-83
2021/06/02 01:47:06;;;;;;;9.23;4.72;;;18.90;50.50;;;;;;6190732;23;20130;-83
2021/06/02 01:50:10;;;;;;;6.53;4.55;;;19.00;50.60;;;;;;6178405;23;20138;-82
2021/06/02 01:53:03;;;;;;;10.30;4.75;;;18.90;50.60;;;;;;6217177;23;20181;-82
2021/06/02 01:56:00;;;;;;;7.22;4.63;;;19.00;50.60;;;;;;6168955;23;20213;-82
2021/06/02 01:58:50;;;;;;;7.53;4.55;;;19.00;50.70;;;;;;6217058;23;20570;-82
2021/06/02 02:01:50;;;;;;;10.20;4.72;;;18.90;50.70;;;;;;6217015;23;20193;-82
2021/06/02 02:04:45;;;;;;;5.60;4.32;;;19.00;50.70;;;;;;6217361;23;20203;-82
2021/06/02 02:07:41;;;;;;;8.93;4.43;;;19.00;50.70;;;;;;6172796;23;20439;-83
2021/06/02 02:10:32;;;;;;;7.10;4.50;;;19.00;50.70;;;;;;6216481;23;20537;-83
2021/06/02 02:13:15;;;;;;;7.15;4.60;;;18.90;50.70;;;;;;6196057;23;20172;-82
2021/06/02 02:16:00;;;;;;;6.85;4.60;;;19.00;50.80;;;;;;6165609;23;20150;-82
2021/06/02 02:18:51;;;;;;;7.22;4.50;;;18.90;50.80;;;;;;6165554;23;20156;-83
2021/06/02 02:21:51;;;;;;;9.45;4.80;;;19.00;50.80;;;;;;6142944;23;20582;-83
2021/06/02 02:24:25;;;;;;;9.10;4.40;;;19.00;50.80;;;;;;6150744;23;20199;-82
2021/06/02 02:27:21;;;;;;;5.72;4.15;;;18.90;50.80;;;;;;6116638;23;20528;-82
2021/06/02 02:30:20;;;;;;;8.45;4.80;;;19.00;50.90;;;;;;6189683;23;20200;-82
2021/06/02 02:33:13;;;;;;;8.93;4.88;;;18.90;50.80;;;;;;6190264;23;20157;-82
2021/06/02 02:35:51;;;;;;;8.35;5.00;;;18.90;50.80;;;;;;6164985;23;20236;-82
2021/06/02 02:38:51;;;;;;;5.43;4.32;;;18.90;50.90;;;;;;6139864;23;20153;-82
2021/06/02 02:41:42;;;;;;;7.82;4.43;;;18.90;50.90;;;;;;6216367;23;20162;-83
2021/06/02 02:44:35;;;;;;;8.80;4.68;;;18.90;50.90;;;;;;6169538;23;20448;-83
2021/06/02 02:47:13;;;;;;;7.90;4.30;;;18.90;50.90;;;;;;6171447;23;20176;-83
2021/06/02 02:50:12;;;;;;;8.18;4.65;;;18.90;50.90;;;;;;6216979;23;20138;-82
2021/06/02 02:53:01;;;;;;;6.65;4.47;;;18.80;50.90;;;;;;6164310;23;20582;-82
2021/06/02 02:55:30;;;;;;;6.78;4.35;;;18.90;50.90;;;;;;6171948;23;20616;-83
2021/06/02 02:58:12;;;;;;;8.55;4.70;;;18.90;50.90;;;;;;6216793;23;20138;-82
2021/06/02 03:00:47;;;;;;;7.40;4.68;;;18.90;51.00;;;;;;6216689;23;20173;-82
2021/06/02 03:03:25;;;;;;;11.15;4.57;;;18.90;51.00;;;;;;6216496;23;20212;-82
2021/06/02 03:06:05;;;;;;;6.30;4.50;;;18.90;51.10;;;;;;6216427;23;20632;-83
2021/06/02 03:08:49;;;;;;;6.90;4.25;;;18.90;51.10;;;;;;6216428;23;20148;-82
2021/06/02 03:11:18;;;;;;;9.77;4.55;;;18.80;51.00;;;;;;6215937;23;20130;-82
2021/06/02 03:14:03;;;;;;;8.50;4.57;;;18.90;51.10;;;;;;6216462;23;20135;-82
2021/06/02 03:16:31;;;;;;;6.78;4.53;;;18.80;51.10;;;;;;6216447;23;20139;-82
2021/06/02 03:19:13;;;;;;;7.68;4.40;;;18.80;51.60;;;;;;6216232;23;20618;-83
2021/06/02 03:22:13;;;;;;;7.55;4.70;;;18.90;51.10;;;;;;6192984;23;20134;-82
2021/06/02 03:25:14;;;;;;;5.40;4.25;;;18.90;51.00;;;;;;6216237;23;20176;-82
2021/06/02 03:27:50;;;;;;;10.30;4.22;;;18.90;51.00;;;;;;6168361;23;20149;-81
2021/06/02 03:30:35;;;;;;;7.70;4.70;;;18.90;51.00;;;;;;6216175;23;20526;-81
2021/06/02 03:33:16;;;;;;;7.70;4.53;;;18.90;51.00;;;;;;6165268;23;20184;-82
2021/06/02 03:36:14;;;;;;;8.13;4.97;;;18.90;51.00;;;;;;6142766;23;20165;-82
2021/06/02 03:38:56;;;;;;;8.18;4.65;;;18.90;51.00;;;;;;6216027;23;20130;-81
2021/06/02 03:41:55;;;;;;;9.43;4.72;;;18.90;51.00;;;;;;6142088;23;20154;-82
2021/06/02 03:44:50;;;;;;;6.93;4.50;;;18.90;50.90;;;;;;6164204;23;20471;-82
2021/06/02 03:47:28;;;;;;;8.70;4.60;;;18.90;50.90;;;;;;6138443;23;20504;-82
2021/06/02 03:50:07;;;;;;;8.65;4.40;;;18.90;50.70;;;;;;6166238;23;20661;-82
2021/06/02 03:53:01;;;;;;;6.38;4.57;;;19.00;50.70;;;;;;6189812;23;20141;-82
2021/06/02 03:55:45;;;;;;;5.65;4.40;;;19.00;50.70;;;;;;6189319;23;20153;-82
2021/06/02 03:58:36;;;;;;;7.03;4.18;;;19.00;50.60;;;;;;6170938;23;20544;-82
2021/06/02 04:01:10;;;;;;;7.28;4.10;;;19.00;50.60;;;;;;6216037;23;20138;-82
2021/06/02 04:04:06;;;;;;;6.78;4.13;;;19.10;50.60;;;;;;6216257;23;20193;-84
2021/06/02 04:06:41;;;;;;;5.78;4.40;;;19.10;50.60;;;;;;6216249;23;20145;-82
2021/06/02 04:09:24;;;;;;;5.75;4.07;;;19.10;50.60;;;;;;6189735;23;20161;-82
2021/06/02 04:12:06;;;;;;;8.32;4.38;;;19.10;50.60;;;;;;6139728;23;20184;-81
2021/06/02 04:14:35;;;;;;;7.72;4.57;;;19.10;50.70;;;;;;6169880;23;20150;-82
2021/06/02 04:17:03;;;;;;;6.15;3.78;;;19.00;50.60;;;;;;6164221;23;20157;-82
2021/06/02 04:19:31;;;;;;;5.65;4.13;;;19.10;50.60;;;;;;6163507;23;20185;-82
2021/06/02 04:22:03;;;;;;;6.68;4.32;;;19.10;50.60;;;;;;6164024;23;20150;-82
2021/06/02 04:24:29;;;;;;;5.55;4.10;;;19.10;50.40;;;;;;6189719;23;20173;-81
2021/06/02 04:26:55;;;;;;;6.05;4.47;;;19.10;50.40;;;;;;6164601;23;20528;-82
2021/06/02 04:29:20;;;;;;;4.97;4.00;;;19.20;50.40;;;;;;6215529;23;20221;-82
2021/06/02 04:31:59;;;;;;;6.22;4.10;;;19.20;50.40;;;;;;6215856;23;20470;-82
2021/06/02 04:34:26;;;;;;;6.63;4.18;;;19.20;50.40;;;;;;6164392;23;20566;-82
2021/06/02 04:36:53;;;;;;;5.82;4.18;;;19.20;50.30;;;;;;6215731;23;20142;-82
2021/06/02 04:39:20;;;;;;;5.28;4.20;;;19.20;50.30;;;;;;6216254;23;20620;-82
2021/06/02 04:41:46;;;;;;;7.18;4.22;;;19.20;50.30;;;;;;6217577;23;20138;-82
2021/06/02 04:44:14;;;;;;;6.15;4.10;;;19.20;50.40;;;;;;6191958;23;20126;-82
2021/06/02 04:46:40;;;;;;;7.22;5.07;;;19.20;50.30;;;;;;6191742;23;20142;-82
2021/06/02 04:49:06;;;;;;;5.45;4.38;;;19.20;50.30;;;;;;6191780;23;20216;-82
2021/06/02 04:52:10;;;;;;;5.93;4.15;;;19.20;50.30;;;;;;6217922;23;20462;-81
2021/06/02 04:54:55;;;;;;;8.15;4.05;;;19.20;50.40;;;;;;6196222;23;20141;-83
2021/06/02 04:57:59;;;;;;;6.22;3.88;;;19.20;50.30;;;;;;6217987;23;20141;-82
2021/06/02 05:00:58;;;;;;;6.03;4.38;;;19.20;50.20;;;;;;6217928;23;20182;-81
2021/06/02 05:03:59;;;;;;;6.45;3.83;;;19.30;50.30;;;;;;6218382;23;20507;-81
2021/06/02 05:06:48;;;;;;;6.88;4.43;;;19.30;50.30;;;;;;6198900;23;20157;-82
2021/06/02 05:09:42;;;;;;;4.88;4.07;;;19.20;50.30;;;;;;6217659;23;20169;-80
2021/06/02 05:12:40;;;;;;;6.40;4.15;;;19.20;50.40;;;;;;6217866;23;20140;-83
2021/06/02 05:15:31;;;;;;;7.63;4.32;;;19.20;50.40;;;;;;6198561;23;20219;-82
2021/06/02 05:18:29;;;;;;;5.45;4.20;;;19.20;50.30;;;;;;6218325;23;20130;-81
2021/06/02 05:24:29;;;;;;;5.57;4.10;;;19.20;50.40;;;;;;6162769;23;20243;-82
2021/06/02 05:27:30;;;;;;;5.35;3.97;;;19.20;50.40;;;;;;6219970;23;20134;-82
2021/06/02 05:30:29;;;;;;;5.78;3.67;;;19.30;50.30;;;;;;6193389;23;20154;-81
2021/06/02 05:33:30;;;;;;;6.45;3.85;;;19.30;50.20;;;;;;6216888;23;20547;-82
2021/06/02 05:36:15;;;;;;;7.95;3.70;;;19.30;50.10;;;;;;6195482;23;20206;-81
2021/06/02 05:39:03;;;;;;;5.03;4.10;;;19.30;50.00;;;;;;6217314;23;20161;-84
2021/06/02 05:41:56;;;;;;;4.55;3.72;;;19.30;50.10;;;;;;6198102;23;20222;-82
2021/06/02 05:44:53;;;;;;;5.50;3.97;;;19.30;50.20;;;;;;6199910;23;20134;-82
2021/06/02 05:47:34;;;;;;;5.85;4.00;;;19.40;50.10;;;;;;6219398;23;20192;-82
2021/06/02 05:50:40;;;;;;;7.20;3.97;;;19.30;50.00;;;;;;6220757;23;20146;-82
2021/06/02 05:53:32;;;;;;;6.25;3.75;;;19.30;50.10;;;;;;6202128;23;20570;-83
2021/06/02 05:56:30;;;;;;;6.65;4.10;;;19.40;50.00;;;;;;6167975;23;20138;-81
2021/06/02 05:59:13;;;;;;;4.68;3.45;;;19.30;50.10;;;;;;6200464;23;20170;-81
2021/06/02 06:01:50;;;;;;;5.30;3.50;;;19.40;50.10;;;;;;6220167;23;20149;-82
2021/06/02 06:04:56;;;;;;;5.40;3.95;;;19.40;50.00;;;;;;6169836;23;20449;-81
2021/06/02 06:07:55;;;;;;;5.13;3.83;;;19.40;50.10;;;;;;6197633;23;20150;-81
2021/06/02 06:10:50;;;;;;;5.22;3.67;;;19.40;50.10;;;;;;6200349;23;20451;-82
2021/06/02 06:13:45;;;;;;;6.50;3.80;;;19.40;49.90;;;;;;6219686;23;20141;-82
2021/06/02 06:16:30;;;;;;;7.32;3.90;;;19.40;49.90;;;;;;6196867;23;20153;-81
2021/06/02 06:19:20;;;;;;;4.75;3.65;;;19.50;49.90;;;;;;6220191;23;20213;-82
2021/06/02 06:22:04;;;;;;;6.75;3.75;;;19.50;49.90;;;;;;6125709;23;20156;-82
2021/06/02 06:24:43;;;;;;;6.90;4.20;;;19.40;50.10;;;;;;6192826;23;20188;-82
2021/06/02 06:27:31;;;;;;;5.93;3.72;;;19.40;50.00;;;;;;6218839;23;20134;-81
2021/06/02 06:30:10;;;;;;;4.60;3.50;;;19.50;50.00;;;;;;6190494;23;20139;-82
2021/06/02 06:32:38;;;;;;;5.07;3.72;;;19.50;50.00;;;;;;6190729;23;20143;-82
2021/06/02 06:35:05;;;;;;;5.35;3.90;;;19.40;50.00;;;;;;6136247;23;20150;-81
2021/06/02 06:37:36;;;;;;;4.53;3.60;;;19.50;50.00;;;;;;6137027;23;20151;-81
2021/06/02 06:40:06;;;;;;;6.13;3.70;;;19.50;49.90;;;;;;6162339;23;20217;-81
2021/06/02 06:42:41;;;;;;;5.50;3.55;;;19.50;49.90;;;;;;6189973;23;20166;-81
2021/06/02 06:45:11;;;;;;;5.53;3.78;;;19.50;49.90;;;;;;6164016;23;20126;-82
2021/06/02 06:47:37;;;;;;;5.07;4.00;;;19.50;50.00;;;;;;6190476;23;20503;-81
2021/06/02 06:50:03;;;;;;;4.40;3.47;;;19.50;50.20;;;;;;6164439;23;20142;-81
2021/06/02 06:52:29;;;;;;;5.10;3.75;;;19.50;50.00;;;;;;6190441;23;20143;-81
2021/06/02 06:54:57;;;;;;;5.75;3.60;;;19.50;50.40;;;;;;6165499;23;20139;-82
2021/06/02 06:57:23;;;;;;;5.20;3.80;;;19.50;50.70;;;;;;6163033;23;20138;-81
2021/06/02 06:59:49;;;;;;;5.43;3.60;;;19.60;50.50;;;;;;6191449;23;20495;-82
2021/06/02 07:02:15;;;;;;;4.45;3.50;;;19.50;50.50;;;;;;6162056;23;20166;-81
2021/06/02 07:04:42;;;;;;;4.68;3.45;;;19.50;50.40;;;;;;6161831;23;20181;-80
2021/06/02 07:07:08;;;;;;;4.53;3.33;;;19.50;50.50;;;;;;6189359;23;20226;-80
2021/06/02 07:09:38;;;;;;;4.95;3.80;;;19.50;50.40;;;;;;6135270;23;20146;-80
2021/06/02 07:12:04;;;;;;;4.47;3.78;;;19.60;50.30;;;;;;6136354;23;20151;-81
2021/06/02 07:14:30;;;;;;;4.95;4.20;;;19.50;50.50;;;;;;6187488;23;20138;-81
2021/06/02 07:17:04;;;;;;;4.35;3.70;;;19.60;50.50;;;;;;6187045;23;20135;-81
2021/06/02 07:19:31;;;;;;;4.38;3.50;;;19.50;50.50;;;;;;6162051;23;20167;-81
2021/06/02 07:21:57;;;;;;;4.47;3.60;;;19.50;50.70;;;;;;6188015;23;20463;-81
2021/06/02 07:24:23;;;;;;;4.75;3.63;;;19.50;50.40;;;;;;6187165;23;20142;-81
2021/06/02 07:26:49;;;;;;;5.00;3.50;;;19.50;51.10;;;;;;6187118;23;20135;-81
2021/06/02 07:29:15;;;;;;;4.60;3.65;;;19.50;50.50;;;;;;6183011;23;20558;-81
2021/06/02 07:31:41;;;;;;;5.85;3.90;;;19.50;50.50;;;;;;6217319;23;20130;-81
2021/06/02 07:34:07;;;;;;;4.32;3.63;;;19.50;50.60;;;;;;6216058;23;20209;-81
2021/06/02 07:36:33;;;;;;;4.70;3.60;;;19.50;50.50;;;;;;6216585;23;20680;-81
2021/06/02 07:39:00;;;;;;;4.90;3.80;;;19.50;50.60;;;;;;6215966;23;20618;-81
2021/06/02 07:41:26;;;;;;;5.30;3.92;;;19.50;50.70;;;;;;6189910;23;20134;-81
2021/06/02 07:43:51;;;;;;;4.55;3.60;;;19.50;50.50;;;;;;6216458;23;20134;-82
2021/06/02 07:46:17;;;;;;;5.85;3.90;;;19.50;50.50;;;;;;6215329;23;20138;-81
2021/06/02 07:48:43;;;;;;;5.10;3.80;;;19.50;50.50;;;;;;6215061;23;20505;-81
2021/06/02 07:51:09;;;;;;;6.32;4.07;;;19.60;50.40;;;;;;6216501;23;20518;-81
2021/06/02 07:53:35;;;;;;;4.30;3.28;;;19.60;50.50;;;;;;6216696;23;20185;-82
2021/06/02 07:56:01;;;;;;;5.35;3.67;;;19.60;50.40;;;;;;6218901;23;20134;-83
2021/06/02 07:58:27;;;;;;;5.32;4.00;;;19.50;50.50;;;;;;6191700;23;20152;-81
2021/06/02 08:00:53;;;;;;;5.78;3.63;;;19.50;50.70;;;;;;6189519;23;20189;-81
2021/06/02 08:03:19;;;;;;;4.78;3.90;;;19.50;50.70;;;;;;6189217;23;20141;-82
2021/06/02 08:05:45;;;;;;;4.43;3.70;;;19.60;50.60;;;;;;6189249;23;20208;-81
2021/06/02 08:08:11;;;;;;;5.90;3.85;;;19.50;50.50;;;;;;6191909;23;20134;-81
2021/06/02 08:10:41;;;;;;;5.57;3.88;;;19.60;50.70;;;;;;6216142;23;20138;-81
2021/06/02 08:13:07;;;;;;;4.32;3.90;;;19.60;50.60;;;;;;6164734;23;20609;-82
2021/06/02 08:15:33;;;;;;;5.20;3.85;;;19.60;50.50;;;;;;6189976;23;20213;-82
2021/06/02 08:17:58;;;;;;;4.10;3.70;;;19.60;50.60;;;;;;6215992;23;20491;-81
2021/06/02 08:20:24;;;;;;;6.30;3.92;;;19.60;50.50;;;;;;6215832;23;20193;-81
2021/06/02 08:22:50;;;;;;;5.43;3.72;;;19.60;50.50;;;;;;6191868;23;20134;-81
2021/06/02 08:25:16;;;;;;;4.13;3.55;;;19.60;50.50;;;;;;6217981;23;20153;-81
2021/06/02 08:27:44;;;;;;;5.90;3.70;;;19.60;50.50;;;;;;6216708;23;20136;-82
2021/06/02 08:30:10;;;;;;;4.88;3.78;;;19.70;50.50;;;;;;6214831;23;20196;-82
2021/06/02 08:32:36;;;;;;;4.45;3.67;;;19.60;50.50;;;;;;6214234;23;20223;-80
2021/06/02 08:35:03;;;;;;;4.95;3.85;;;19.70;50.50;;;;;;6215838;23;20145;-80
2021/06/02 08:37:29;;;;;;;4.35;3.95;;;19.60;50.60;;;;;;6214714;23;20138;-81
2021/06/02 08:39:55;;;;;;;6.10;3.90;;;19.70;50.50;;;;;;6215321;23;20257;-81
2021/06/02 08:42:25;;;;;;;5.15;3.63;;;19.70;50.40;;;;;;6189582;23;20629;-80
2021/06/02 08:44:51;;;;;;;5.15;3.85;;;19.70;50.50;;;;;;6140206;23;20154;-80
2021/06/02 08:47:17;;;;;;;4.18;3.47;;;19.70;50.50;;;;;;6217543;23;20169;-80
2021/06/02 08:49:43;;;;;;;4.13;3.60;;;19.70;50.50;;;;;;6216871;23;20138;-81
2021/06/02 08:52:09;;;;;;;4.05;3.65;;;19.70;50.40;;;;;;6164543;23;20489;-80
2021/06/02 08:54:35;;;;;;;5.28;4.10;;;19.80;50.50;;;;;;6190034;23;20570;-80
2021/06/02 08:57:03;;;;;;;5.05;4.03;;;19.70;50.60;;;;;;6215759;23;20618;-80
2021/06/02 08:59:30;;;;;;;4.70;3.60;;;19.70;50.60;;;;;;6136986;23;20641;-80
2021/06/02 09:01:58;;;;;;;5.55;4.00;;;19.80;50.70;;;;;;6137932;23;20154;-80
2021/06/02 09:04:26;;;;;;;4.43;3.90;;;19.70;50.70;;;;;;6137978;23;20194;-81
2021/06/02 09:06:54;;;;;;;5.20;4.03;;;19.70;50.90;;;;;;6137048;23;20150;-81
2021/06/02 09:09:20;;;;;;;6.30;4.07;;;19.70;50.80;;;;;;6161695;23;20258;-81
2021/06/02 09:11:49;;;;;;;5.60;4.20;;;19.70;51.00;;;;;;6137215;23;20512;-81
2021/06/02 09:14:35;;;;;;;4.55;3.90;;;19.70;50.90;;;;;;6165352;23;20146;-80
2021/06/02 09:17:04;;;;;;;5.03;4.15;;;19.70;50.80;;;;;;6166169;23;20153;-80
2021/06/02 09:19:33;;;;;;;5.25;3.92;;;19.70;50.90;;;;;;6141490;23;20209;-81
2021/06/02 09:22:00;;;;;;;4.32;3.92;;;19.70;51.00;;;;;;6167654;23;20184;-81
2021/06/02 09:24:57;;;;;;;4.57;4.00;;;19.70;51.00;;;;;;6166596;23;20150;-82
2021/06/02 09:27:44;;;;;;;4.50;3.78;;;19.70;50.90;;;;;;6194898;23;20150;-81
2021/06/02 09:30:13;;;;;;;4.78;3.92;;;19.80;50.80;;;;;;6192575;23;20158;-81
2021/06/02 09:32:41;;;;;;;6.47;4.10;;;19.70;50.90;;;;;;6165508;23;20138;-81
2021/06/02 09:35:08;;;;;;;4.68;3.83;;;19.70;51.00;;;;;;6191242;23;20131;-83
2021/06/02 09:37:47;;;;;;;5.70;4.10;;;19.70;50.90;;;;;;6166117;23;20155;-81
2021/06/02 09:40:31;;;;;;;5.30;4.28;;;19.80;50.90;;;;;;6189129;23;20598;-81
2021/06/02 09:42:57;;;;;;;4.50;4.07;;;19.80;51.60;;;;;;6190252;23;20149;-81
2021/06/02 09:45:23;;;;;;;4.43;4.00;;;19.70;50.90;;;;;;6189772;23;20135;-81
2021/06/02 09:47:52;;;;;;;4.25;3.85;;;19.80;50.80;;;;;;6189654;23;20139;-82
2021/06/02 09:50:27;;;;;;;4.97;3.47;;;19.70;50.80;;;;;;6190284;23;20146;-81
2021/06/02 09:52:54;;;;;;;4.70;4.03;;;19.80;50.80;;;;;;6164800;23;20137;-81
2021/06/02 09:55:24;;;;;;;8.18;4.03;;;19.80;50.70;;;;;;6164131;23;20243;-82
2021/06/02 09:58:08;;;;;;;5.22;4.30;;;19.80;50.70;;;;;;6163716;23;20578;-82
2021/06/02 10:00:40;;;;;;;6.18;4.38;;;19.80;50.70;;;;;;6165098;23;20183;-82
2021/06/02 10:03:19;;;;;;;4.82;3.75;;;19.80;50.80;;;;;;6166188;23;20556;-82
2021/06/02 10:05:46;;;;;;;4.55;3.90;;;19.80;50.70;;;;;;6166343;23;20131;-81
2021/06/02 10:08:23;;;;;;;6.03;4.80;;;19.70;50.80;;;;;;6165952;23;20139;-82
2021/06/02 10:10:49;;;;;;;4.72;3.70;;;19.80;50.80;;;;;;6141554;23;20141;-81
2021/06/02 10:13:14;;;;;;;4.88;4.00;;;19.80;50.70;;;;;;6162519;23;20147;-82
2021/06/02 10:15:42;;;;;;;5.10;3.90;;;19.80;50.70;;;;;;6192188;23;20203;-82
2021/06/02 10:18:25;;;;;;;4.60;4.00;;;19.70;50.80;;;;;;6166884;23;20162;-81
2021/06/02 10:21:02;;;;;;;5.07;3.90;;;19.70;50.90;;;;;;6192988;23;20249;-81
2021/06/02 10:23:30;;;;;;;5.10;4.07;;;19.70;50.80;;;;;;6191898;23;20135;-81
2021/06/02 10:25:57;;;;;;;4.93;3.90;;;19.80;50.80;;;;;;6140786;23;20150;-81
2021/06/02 10:28:24;;;;;;;5.30;4.28;;;19.80;50.70;;;;;;6153252;23;20201;-81
2021/06/02 10:30:50;;;;;;;4.88;4.18;;;19.80;50.80;;;;;;6195732;23;20142;-81
2021/06/02 10:33:16;;;;;;;5.05;4.25;;;19.60;50.90;;;;;;6195210;23;20200;-81
2021/06/02 10:35:42;;;;;;;5.38;4.18;;;19.80;50.80;;;;;;6222668;23;20150;-82
2021/06/02 10:38:08;;;;;;;4.35;3.83;;;19.80;50.80;;;;;;6223191;23;20130;-82
2021/06/02 10:40:34;;;;;;;5.10;4.20;;;19.80;50.80;;;;;;6221480;23;20174;-82
2021/06/02 10:43:07;;;;;;;4.85;4.10;;;19.80;50.80;;;;;;6223006;23;20134;-81
2021/06/02 10:45:37;;;;;;;5.35;3.95;;;19.80;50.80;;;;;;6198415;23;20154;-81
2021/06/02 10:48:04;;;;;;;4.80;4.13;;;19.70;50.80;;;;;;6193123;23;20126;-81
2021/06/02 10:50:47;;;;;;;5.22;4.40;;;19.70;51.00;;;;;;6217781;23;20142;-81
2021/06/02 10:53:25;;;;;;;4.70;3.72;;;19.70;50.80;;;;;;6191798;23;20201;-81
2021/06/02 10:55:55;;;;;;;5.57;4.30;;;19.70;50.80;;;;;;6165788;23;20266;-81
2021/06/02 10:58:27;;;;;;;4.70;4.20;;;19.70;50.90;;;;;;6217875;23;20610;-81
2021/06/02 11:01:17;;;;;;;5.60;4.15;;;19.70;50.80;;;;;;6164763;23;20193;-81
2021/06/02 11:03:44;;;;;;;4.40;3.72;;;19.70;50.90;;;;;;6218094;23;20135;-81
2021/06/02 11:06:30;;;;;;;5.10;3.97;;;19.80;50.80;;;;;;6217943;23;20162;-81
2021/06/02 11:09:07;;;;;;;5.90;4.13;;;19.80;50.80;;;;;;6172870;23;20169;-81
2021/06/02 11:11:37;;;;;;;5.13;4.20;;;19.70;50.90;;;;;;6192931;23;20601;-82
2021/06/02 11:14:20;;;;;;;5.15;4.25;;;19.80;50.90;;;;;;6220888;23;20447;-81
2021/06/02 11:16:53;;;;;;;4.43;4.00;;;19.80;50.80;;;;;;6220013;23;20134;-81
2021/06/02 11:19:20;;;;;;;4.43;3.90;;;19.80;50.80;;;;;;6218193;23;20177;-82
2021/06/02 11:22:06;;;;;;;4.40;3.70;;;19.80;50.70;;;;;;6191264;23;20130;-82
2021/06/02 11:24:39;;;;;;;4.28;3.88;;;19.70;50.80;;;;;;6197650;23;20138;-81
2021/06/02 11:27:26;;;;;;;5.15;4.25;;;19.70;50.80;;;;;;6221152;23;20127;-80
2021/06/02 11:30:15;;;;;;;5.43;4.35;;;19.70;51.00;;;;;;6199353;23;20146;-81
2021/06/02 11:32:48;;;;;;;5.40;3.95;;;19.70;51.00;;;;;;6177557;23;20217;-81
2021/06/02 11:35:15;;;;;;;4.85;4.00;;;19.60;51.10;;;;;;6199224;23;20157;-80
2021/06/02 11:37:41;;;;;;;5.85;4.40;;;19.70;51.00;;;;;;6171454;23;20138;-83
2021/06/02 11:40:09;;;;;;;5.50;3.90;;;19.80;50.80;;;;;;6168896;23;20617;-81
2021/06/02 11:42:41;;;;;;;6.00;4.07;;;19.80;50.90;;;;;;6172773;23;20233;-82
2021/06/02 11:45:10;;;;;;;4.72;3.97;;;19.80;50.90;;;;;;6202186;23;20166;-81
2021/06/02 11:47:37;;;;;;;5.22;3.90;;;19.80;50.90;;;;;;6203786;23;20137;-82
2021/06/02 11:50:12;;;;;;;5.60;4.20;;;19.80;50.80;;;;;;6154918;23;20170;-82
2021/06/02 11:52:42;;;;;;;6.47;4.30;;;19.80;50.80;;;;;;6200505;23;20153;-82
2021/06/02 11:55:10;;;;;;;4.40;3.92;;;19.80;50.80;;;;;;6227066;23;20622;-81
2021/06/02 11:57:38;;;;;;;4.80;4.22;;;19.80;50.60;;;;;;6226424;23;20126;-82
2021/06/02 12:00:08;;;;;;;4.55;4.05;;;19.80;50.80;;;;;;6171269;23;20166;-81
2021/06/02 12:02:34;;;;;;;5.78;3.90;;;19.80;50.80;;;;;;6219024;23;20131;-81
2021/06/02 12:05:12;;;;;;;4.88;4.07;;;19.80;50.90;;;;;;6169674;23;20166;-82
2021/06/02 12:07:42;;;;;;;4.75;3.88;;;19.80;50.80;;;;;;6217134;23;20213;-81
2021/06/02 12:10:08;;;;;;;4.68;4.10;;;19.80;50.70;;;;;;6142238;23;20158;-81
2021/06/02 12:12:39;;;;;;;5.35;3.85;;;19.80;50.80;;;;;;6167028;23;20188;-81
2021/06/02 12:15:08;;;;;;;6.63;4.25;;;19.80;50.80;;;;;;6222451;23;20130;-80
2021/06/02 12:17:34;;;;;;;7.00;4.47;;;19.80;50.80;;;;;;6171535;23;20606;-80
2021/06/02 12:20:03;;;;;;;5.25;4.38;;;19.80;50.80;;;;;;6195281;23;20174;-80
2021/06/02 12:22:29;;;;;;;4.68;4.13;;;19.80;50.70;;;;;;6217357;23;20161;-81
2021/06/02 12:25:09;;;;;;;5.05;3.97;;;19.90;50.90;;;;;;6219081;23;20134;-81
2021/06/02 12:27:45;;;;;;;4.72;4.00;;;19.80;50.60;;;;;;6121495;23;20177;-79
2021/06/02 12:30:18;;;;;;;5.45;4.13;;;19.90;50.60;;;;;;6172974;23;20152;-81
2021/06/02 12:32:54;;;;;;;6.80;3.88;;;19.90;50.70;;;;;;6197319;23;20134;-81
2021/06/02 12:35:32;;;;;;;4.82;4.10;;;19.90;50.50;;;;;;6198695;23;20181;-80
2021/06/02 12:38:08;;;;;;;5.82;3.70;;;19.90;50.70;;;;;;6172030;23;20146;-80
2021/06/02 12:40:34;;;;;;;4.93;4.15;;;20.00;50.50;;;;;;6196489;23;20184;-81
2021/06/02 12:43:00;;;;;;;4.32;3.88;;;20.00;50.60;;;;;;6168732;23;20154;-81
2021/06/02 12:45:28;;;;;;;5.38;4.25;;;20.00;50.80;;;;;;6171359;23;20153;-81
2021/06/02 12:47:55;;;;;;;5.78;4.20;;;19.90;50.90;;;;;;6196848;23;20196;-80
2021/06/02 12:50:43;;;;;;;6.80;4.20;;;19.80;50.80;;;;;;6172410;23;20146;-80
2021/06/02 12:53:09;;;;;;;8.05;4.20;;;19.80;51.60;;;;;;6173289;23;20574;-80
2021/06/02 12:55:36;;;;;;;4.65;4.05;;;19.80;50.80;;;;;;6171318;23;20209;-80
2021/06/02 12:58:04;;;;;;;5.32;3.97;;;19.90;50.70;;;;;;6148871;23;20425;-80
2021/06/02 13:00:30;;;;;;;4.30;3.80;;;19.80;50.80;;;;;;6174612;23;20189;-82
2021/06/02 13:02:58;;;;;;;6.57;4.28;;;19.80;50.80;;;;;;6201733;23;20137;-80
2021/06/02 13:05:28;;;;;;;4.82;4.20;;;19.90;50.70;;;;;;6201260;23;20123;-79
2021/06/02 13:08:05;;;;;;;5.65;4.03;;;19.90;50.80;;;;;;6150831;23;20150;-80
2021/06/02 13:10:36;;;;;;;4.53;3.92;;;19.90;50.80;;;;;;6151103;23;20161;-80
2021/06/02 13:13:05;;;;;;;4.30;3.65;;;19.90;50.60;;;;;;6150758;23;20177;-81
2021/06/02 13:15:34;;;;;;;5.25;4.20;;;20.00;50.30;;;;;;6149084;23;20157;-80
2021/06/02 13:18:05;;;;;;;7.25;4.00;;;20.00;50.50;;;;;;6175868;23;20181;-81
2021/06/02 13:20:39;;;;;;;5.28;4.30;;;20.10;50.40;;;;;;6199659;23;20227;-79
2021/06/02 13:23:14;;;;;;;5.28;4.10;;;20.00;50.70;;;;;;6153210;23;20161;-80
2021/06/02 13:25:40;;;;;;;4.95;3.88;;;19.90;50.50;;;;;;6177592;23;20200;-79
2021/06/02 13:28:07;;;;;;;8.55;4.82;;;20.00;50.60;;;;;;6150150;23;20564;-81
2021/06/02 13:30:43;;;;;;;10.73;4.10;;;19.90;50.50;;;;;;6228270;23;20131;-81